Airfield :







YOU CAN JOIN US ON...

 
LOGIN :

Register | Disclaimer

   EN    FR    IT 

 









Legend :    VFR   Marginal VFR   IFR   Intensive IFR   Very Intensive IFR
Visi :
Ceiling :
>= 8 km
>= 3000ft
5 to 8 km
1000 to 3000 ft
1500m to 5 km
500 to 1000 ft
800 to 1500m
200 to 500 ft
< 800m
< 200 ft
Symbols :   Thunderstorms  Fog  Heavy snow  Heavy precipitations  Wind > 20 kt







- Airport Elevation : 39 ft
- IATA code : YNA


CYNA - Natashquan

CURRENT METAR :
  • 170800Z AUTO 01013KT 9SM CLR 04/01 A3003 RMK SLP170

EXPIRED METARs :
  • 170700Z AUTO 01014KT 9SM CLR 05/01 A3002 RMK SLP169
  • 170600Z AUTO 02012G18KT 9SM CLR 05/01 A3001 RMK SLP164

TAF TAF CYNA
Valid from the 17 at 08:00 until the 17 at 20:00 UTC


170738Z 1708/1720 01012G22KT P6SM FEW030 RMK FCST BASED ON AUTO OBS. NXT FCST BY 171400Z
No reported NOTAMs for that airfield.



MET'MAP, your aeronautical weather chart ! - Copyright ORBIFLY December 2007 - Disclaimer

ORBIFLY MET'MAP TEAM :

Programming & Development : Alexandra Zaïnal
Concept & Development : Baudouin d'Aumeries
Co-Development & Prog : Marc-Olivier Méhu
Technical & hardware support : Manuel Goepfert

Contact : metmap@orbifly.com




SOURCES & CREDITS :

   NOAA